Time;durP1;ratioP1;P1;durP2;ratioP2;P2;SDS_P1;SDS_P2;PMS_P1;PMS_P2;Temp;Humidity;BMP_temperature;BMP_pressure;BME280_temperature;BME280_humidity;BME280_pressure;Samples;Min_cycle;Max_cycle;Signal;HPM_P1;HPM_P2
2021/10/12 00:01:52;;;;;;;;;5.67;5.67;;;;;;;;5139340;27;8777;-82
2021/10/12 00:04:17;;;;;;;;;8.33;7.67;;;;;;;;5139344;27;8840;-81
2021/10/12 00:06:42;;;;;;;;;10.00;9.00;;;;;;;;5139199;27;8816;-81
2021/10/12 00:09:07;;;;;;;;;8.00;8.00;;;;;;;;5139215;27;8864;-81
2021/10/12 00:11:32;;;;;;;;;6.00;5.33;;;;;;;;5139380;27;8773;-82
2021/10/12 00:13:58;;;;;;;;;8.33;8.33;;;;;;;;5139372;27;8784;-81
2021/10/12 00:16:23;;;;;;;;;10.00;9.00;;;;;;;;5139138;27;8842;-81
2021/10/12 00:18:48;;;;;;;;;8.00;8.00;;;;;;;;5139017;27;8831;-81
2021/10/12 00:21:14;;;;;;;;;8.33;8.33;;;;;;;;5138765;27;8832;-81
2021/10/12 00:23:39;;;;;;;;;13.33;11.00;;;;;;;;5138966;27;8788;-81
2021/10/12 00:26:04;;;;;;;;;9.67;9.67;;;;;;;;5138954;27;8846;-81
2021/10/12 00:28:30;;;;;;;;;10.33;10.33;;;;;;;;5138880;27;8768;-82
2021/10/12 00:30:56;;;;;;;;;10.75;10.00;;;;;;;;5152733;27;8804;-82
2021/10/12 00:33:21;;;;;;;;;8.33;8.33;;;;;;;;5159685;27;8769;-82
2021/10/12 00:35:46;;;;;;;;;10.33;9.67;;;;;;;;5159562;27;8917;-82
2021/10/12 00:38:11;;;;;;;;;9.67;9.67;;;;;;;;5157964;27;8797;-82
2021/10/12 00:40:37;;;;;;;;;11.33;9.00;;;;;;;;5158183;27;8878;-81
2021/10/12 00:43:03;;;;;;;;;9.00;9.00;;;;;;;;5159657;27;8766;-81
2021/10/12 00:45:28;;;;;;;;;8.00;7.67;;;;;;;;5158053;27;9368;-81
2021/10/12 00:47:54;;;;;;;;;9.33;8.00;;;;;;;;5159541;27;8798;-81
2021/10/12 00:50:19;;;;;;;;;10.75;9.25;;;;;;;;5159351;27;8750;-82
2021/10/12 00:52:45;;;;;;;;;7.67;7.67;;;;;;;;5157550;27;8794;-82
2021/10/12 00:55:10;;;;;;;;;10.33;9.33;;;;;;;;5159333;27;8774;-82
2021/10/12 00:57:35;;;;;;;;;8.33;7.00;;;;;;;;5159176;27;8832;-82
2021/10/12 01:00:00;;;;;;;;;9.00;9.00;;;;;;;;5157830;27;8800;-82
2021/10/12 01:02:28;;;;;;;;;8.00;8.00;;;;;;;;5159278;27;8814;-81
2021/10/12 01:04:53;;;;;;;;;12.25;12.25;;;;;;;;5159164;27;8780;-80
2021/10/12 01:07:18;;;;;;;;;8.67;8.67;;;;;;;;5158724;27;8829;-81
2021/10/12 01:09:44;;;;;;;;;8.00;7.67;;;;;;;;5157648;27;9682;-81
2021/10/12 01:12:09;;;;;;;;;11.00;10.00;;;;;;;;5157190;27;8804;-81
2021/10/12 01:14:34;;;;;;;;;8.00;8.00;;;;;;;;5159205;27;8796;-81
2021/10/12 01:16:59;;;;;;;;;8.67;8.67;;;;;;;;5158997;27;8802;-81
2021/10/12 01:19:25;;;;;;;;;9.33;9.00;;;;;;;;5157396;27;8809;-81
2021/10/12 01:21:50;;;;;;;;;11.00;9.67;;;;;;;;5157204;27;8841;-81
2021/10/12 01:24:16;;;;;;;;;9.00;7.33;;;;;;;;5158914;27;8888;-81
2021/10/12 01:26:41;;;;;;;;;12.67;11.00;;;;;;;;5158817;27;8794;-80
2021/10/12 01:29:08;;;;;;;;;9.67;8.00;;;;;;;;5158823;27;9175;-80
2021/10/12 01:31:34;;;;;;;;;9.00;9.00;;;;;;;;5139082;27;9678;-81
2021/10/12 01:33:59;;;;;;;;;9.33;8.67;;;;;;;;5136507;27;8830;-81
2021/10/12 01:36:24;;;;;;;;;10.33;10.33;;;;;;;;5136477;27;8855;-81
2021/10/12 01:38:50;;;;;;;;;10.00;10.00;;;;;;;;5136308;27;8814;-81
2021/10/12 01:41:15;;;;;;;;;10.00;9.33;;;;;;;;5137783;27;8855;-80
2021/10/12 01:43:41;;;;;;;;;6.00;6.00;;;;;;;;5137907;27;8788;-80
2021/10/12 01:46:07;;;;;;;;;11.33;11.00;;;;;;;;5136326;27;8843;-80
2021/10/12 01:48:33;;;;;;;;;9.00;9.00;;;;;;;;5137842;27;8896;-81
2021/10/12 01:50:58;;;;;;;;;10.33;10.33;;;;;;;;5136161;27;8850;-80
2021/10/12 01:53:24;;;;;;;;;11.33;10.33;;;;;;;;5137381;27;9024;-81
2021/10/12 01:55:49;;;;;;;;;9.67;9.67;;;;;;;;5137638;27;8792;-82
2021/10/12 01:58:14;;;;;;;;;10.67;9.67;;;;;;;;5137579;27;8788;-81
2021/10/12 02:00:40;;;;;;;;;11.00;9.33;;;;;;;;5135999;27;9543;-82
2021/10/12 02:03:05;;;;;;;;;14.67;11.00;;;;;;;;5137580;27;8800;-81
2021/10/12 02:05:30;;;;;;;;;9.00;9.00;;;;;;;;5137479;27;10057;-81
2021/10/12 02:07:55;;;;;;;;;10.67;10.00;;;;;;;;5137223;27;8813;-80
2021/10/12 02:10:21;;;;;;;;;13.33;10.67;;;;;;;;5137523;27;8784;-81
2021/10/12 02:12:46;;;;;;;;;9.00;8.33;;;;;;;;5136224;27;8815;-81
2021/10/12 02:15:11;;;;;;;;;8.00;8.00;;;;;;;;5135990;27;8893;-80
2021/10/12 02:17:37;;;;;;;;;9.00;8.00;;;;;;;;5135711;27;8861;-81
2021/10/12 02:20:04;;;;;;;;;9.33;9.00;;;;;;;;5135849;27;8780;-80
2021/10/12 02:22:29;;;;;;;;;10.00;9.25;;;;;;;;5135516;27;8804;-80
2021/10/12 02:24:54;;;;;;;;;9.00;9.00;;;;;;;;5138053;27;8777;-81
2021/10/12 02:27:20;;;;;;;;;9.00;8.00;;;;;;;;5139956;27;8939;-82
2021/10/12 02:29:45;;;;;;;;;11.67;11.00;;;;;;;;5143814;27;8762;-81
2021/10/12 02:32:10;;;;;;;;;11.00;9.00;;;;;;;;5159440;27;9485;-81
2021/10/12 02:34:36;;;;;;;;;11.00;11.00;;;;;;;;5160723;27;8782;-81
2021/10/12 02:37:01;;;;;;;;;15.67;12.00;;;;;;;;5158999;27;8904;-81
2021/10/12 02:39:26;;;;;;;;;9.00;9.00;;;;;;;;5160630;27;9537;-81
2021/10/12 02:41:51;;;;;;;;;10.67;10.67;;;;;;;;5159066;27;8805;-81
2021/10/12 02:44:17;;;;;;;;;10.67;8.33;;;;;;;;5160538;27;8814;-80
2021/10/12 02:46:42;;;;;;;;;13.33;10.00;;;;;;;;5160461;27;8872;-80
2021/10/12 02:49:07;;;;;;;;;9.00;9.00;;;;;;;;5160542;27;8762;-80
2021/10/12 02:51:33;;;;;;;;;10.67;10.67;;;;;;;;5160096;27;8802;-80
2021/10/12 02:53:58;;;;;;;;;10.00;9.00;;;;;;;;5160172;27;8854;-80
2021/10/12 02:56:23;;;;;;;;;11.00;10.00;;;;;;;;5160436;27;8806;-80
2021/10/12 02:58:48;;;;;;;;;14.33;12.67;;;;;;;;5158951;27;8802;-80
2021/10/12 03:01:13;;;;;;;;;8.67;8.67;;;;;;;;5160354;27;8824;-81
2021/10/12 03:03:39;;;;;;;;;11.67;11.00;;;;;;;;5158915;27;8805;-80
2021/10/12 03:06:04;;;;;;;;;10.67;10.67;;;;;;;;5158707;27;8817;-80
2021/10/12 03:08:29;;;;;;;;;13.00;11.67;;;;;;;;5159756;27;8786;-81
2021/10/12 03:10:54;;;;;;;;;12.33;12.33;;;;;;;;5158624;27;8878;-81
2021/10/12 03:13:20;;;;;;;;;15.33;11.67;;;;;;;;5159908;27;8846;-81
2021/10/12 03:15:45;;;;;;;;;11.00;10.00;;;;;;;;5159877;27;8781;-82
2021/10/12 03:18:10;;;;;;;;;12.00;12.00;;;;;;;;5117687;27;1143351;-81
2021/10/12 03:20:36;;;;;;;;;12.00;11.00;;;;;;;;5159317;27;8924;-80
2021/10/12 03:23:01;;;;;;;;;13.67;12.00;;;;;;;;5160750;27;8842;-80
2021/10/12 03:25:27;;;;;;;;;11.33;11.33;;;;;;;;5160872;27;8801;-81
2021/10/12 03:27:52;;;;;;;;;11.00;11.00;;;;;;;;5160841;27;8789;-81
2021/10/12 03:30:17;;;;;;;;;13.33;12.67;;;;;;;;5150513;27;8808;-81
2021/10/12 03:32:42;;;;;;;;;14.33;13.00;;;;;;;;5139904;27;9622;-81
2021/10/12 03:35:08;;;;;;;;;12.33;11.67;;;;;;;;5139362;27;8842;-81
2021/10/12 03:37:33;;;;;;;;;14.00;12.67;;;;;;;;5139567;27;8820;-81
2021/10/12 03:39:58;;;;;;;;;15.33;15.00;;;;;;;;5138567;27;8828;-80
2021/10/12 03:42:23;;;;;;;;;13.00;11.00;;;;;;;;5139816;27;8881;-80
2021/10/12 03:44:49;;;;;;;;;16.33;14.00;;;;;;;;5139785;27;8831;-80
2021/10/12 03:47:14;;;;;;;;;13.33;11.67;;;;;;;;5139706;27;8831;-81
2021/10/12 03:49:39;;;;;;;;;12.00;11.67;;;;;;;;5139583;27;9478;-80
2021/10/12 03:52:04;;;;;;;;;12.00;11.00;;;;;;;;5139521;27;8809;-80
2021/10/12 03:54:29;;;;;;;;;14.00;12.00;;;;;;;;5139678;27;8764;-80
2021/10/12 03:56:55;;;;;;;;;14.00;13.00;;;;;;;;5139648;27;8811;-81
2021/10/12 03:59:20;;;;;;;;;10.33;10.33;;;;;;;;5139752;27;8768;-80
2021/10/12 04:01:45;;;;;;;;;10.00;10.00;;;;;;;;5139471;27;8796;-80
2021/10/12 04:04:10;;;;;;;;;12.33;11.33;;;;;;;;5139638;27;8819;-80
2021/10/12 04:06:35;;;;;;;;;11.00;11.00;;;;;;;;5140775;27;8812;-82
2021/10/12 04:09:01;;;;;;;;;12.67;11.67;;;;;;;;5141815;27;8800;-84
2021/10/12 04:11:26;;;;;;;;;12.00;12.00;;;;;;;;5142457;27;8801;-85
2021/10/12 04:13:51;;;;;;;;;13.67;12.00;;;;;;;;5143527;27;8849;-85
2021/10/12 04:16:17;;;;;;;;;16.00;15.67;;;;;;;;5140367;27;9610;-82
2021/10/12 04:18:42;;;;;;;;;12.67;12.67;;;;;;;;5138939;27;8804;-82
2021/10/12 04:21:07;;;;;;;;;12.67;11.00;;;;;;;;5139203;27;8820;-80
2021/10/12 04:23:33;;;;;;;;;17.00;14.67;;;;;;;;5139690;27;8785;-80
2021/10/12 04:25:58;;;;;;;;;19.67;18.33;;;;;;;;5139236;27;8788;-80
2021/10/12 04:28:23;;;;;;;;;15.00;14.33;;;;;;;;5139438;27;9637;-80
2021/10/12 04:30:49;;;;;;;;;17.50;14.00;;;;;;;;5150795;27;8894;-80
2021/10/12 04:33:14;;;;;;;;;11.33;11.33;;;;;;;;5159840;27;8904;-80
2021/10/12 04:35:40;;;;;;;;;14.00;13.00;;;;;;;;5159860;27;8786;-80
2021/10/12 04:38:05;;;;;;;;;12.33;10.67;;;;;;;;5157917;27;8897;-80
2021/10/12 04:40:30;;;;;;;;;16.00;14.00;;;;;;;;5159820;27;8786;-80
2021/10/12 04:42:56;;;;;;;;;16.67;13.00;;;;;;;;5158164;27;8801;-80
2021/10/12 04:45:22;;;;;;;;;14.67;14.67;;;;;;;;5159888;27;8754;-80
2021/10/12 04:47:47;;;;;;;;;17.67;16.67;;;;;;;;5158963;27;9015;-79
2021/10/12 04:50:12;;;;;;;;;18.00;18.00;;;;;;;;5160034;27;8782;-79
2021/10/12 04:52:40;;;;;;;;;19.33;16.67;;;;;;;;5159128;27;8883;-84
2021/10/12 04:55:06;;;;;;;;;15.33;15.33;;;;;;;;5159344;27;9718;-84
2021/10/12 04:57:31;;;;;;;;;17.00;17.00;;;;;;;;5159444;27;9193;-83
2021/10/12 04:59:56;;;;;;;;;23.67;20.33;;;;;;;;5157901;27;8822;-82
2021/10/12 05:02:21;;;;;;;;;22.00;20.33;;;;;;;;5160066;27;8798;-82
2021/10/12 05:04:46;;;;;;;;;50.25;40.75;;;;;;;;5159312;27;8851;-80
2021/10/12 05:07:12;;;;;;;;;30.25;28.00;;;;;;;;5160377;27;8812;-83
2021/10/12 05:09:37;;;;;;;;;19.33;18.00;;;;;;;;5160078;27;8797;-80
2021/10/12 05:12:02;;;;;;;;;24.00;24.00;;;;;;;;5166896;27;8778;-82
2021/10/12 05:14:27;;;;;;;;;20.00;19.00;;;;;;;;5169377;27;8849;-80
2021/10/12 05:16:55;;;;;;;;;17.33;15.67;;;;;;;;5171422;27;8849;-81
2021/10/12 05:19:20;;;;;;;;;24.33;18.00;;;;;;;;5165744;27;8798;-80
2021/10/12 05:21:46;;;;;;;;;18.33;16.67;;;;;;;;5164560;27;9430;-80
2021/10/12 05:24:11;;;;;;;;;20.00;20.00;;;;;;;;5158131;27;8860;-83
2021/10/12 05:26:36;;;;;;;;;12.33;12.33;;;;;;;;5158757;27;8813;-83
2021/10/12 05:29:02;;;;;;;;;20.67;19.67;;;;;;;;5157474;27;8944;-82
2021/10/12 05:31:27;;;;;;;;;20.67;20.67;;;;;;;;5139926;27;8822;-83
2021/10/12 05:33:52;;;;;;;;;20.00;20.00;;;;;;;;5138063;27;8805;-85
2021/10/12 05:36:17;;;;;;;;;21.67;18.33;;;;;;;;5138304;27;8796;-81
2021/10/12 05:38:43;;;;;;;;;20.67;20.00;;;;;;;;5138119;27;8824;-83
2021/10/12 05:41:09;;;;;;;;;21.00;19.33;;;;;;;;5140922;27;8792;-81
2021/10/12 05:43:34;;;;;;;;;18.00;17.67;;;;;;;;5139037;27;8865;-81
2021/10/12 05:45:59;;;;;;;;;18.33;16.67;;;;;;;;5137805;27;8850;-81
2021/10/12 05:48:25;;;;;;;;;19.67;18.00;;;;;;;;5137810;27;8857;-82
2021/10/12 05:50:50;;;;;;;;;18.67;18.67;;;;;;;;5137567;27;8903;-82
2021/10/12 05:59:04;;;;;;;;;19.00;18.00;;;;;;;;5137473;27;9315;-83
2021/10/12 06:01:11;;;;;;;;;23.33;19.33;;;;;;;;5134327;27;9381;-83
2021/10/12 06:03:37;;;;;;;;;26.25;25.25;;;;;;;;5136105;27;10108;-82
2021/10/12 06:06:02;;;;;;;;;26.00;25.67;;;;;;;;5137296;27;8852;-82
2021/10/12 06:08:30;;;;;;;;;24.00;23.25;;;;;;;;5138022;27;8800;-77
2021/10/12 06:10:56;;;;;;;;;32.50;28.75;;;;;;;;5136036;27;8881;-82
2021/10/12 06:13:23;;;;;;;;;30.50;28.50;;;;;;;;5137456;27;9723;-82
2021/10/12 06:15:48;;;;;;;;;30.25;28.25;;;;;;;;5137234;27;8910;-83
2021/10/12 06:18:13;;;;;;;;;25.00;23.50;;;;;;;;5134603;27;9987;-86
2021/10/12 06:20:38;;;;;;;;;27.33;27.00;;;;;;;;5135840;27;8900;-87
2021/10/12 06:23:04;;;;;;;;;30.00;27.25;;;;;;;;5136616;27;8788;-86
2021/10/12 06:25:29;;;;;;;;;23.25;21.50;;;;;;;;5135259;27;8816;-86
2021/10/12 06:27:54;;;;;;;;;25.25;25.00;;;;;;;;5136714;27;8832;-85
2021/10/12 06:30:20;;;;;;;;;28.00;24.50;;;;;;;;5145851;27;8822;-84
2021/10/12 06:32:45;;;;;;;;;23.75;23.00;;;;;;;;5158120;27;8861;-85
2021/10/12 06:35:10;;;;;;;;;24.33;22.33;;;;;;;;5156473;27;8828;-85
2021/10/12 06:37:35;;;;;;;;;26.00;21.33;;;;;;;;5157580;27;8801;-84
2021/10/12 06:40:01;;;;;;;;;19.67;19.33;;;;;;;;5155874;27;8801;-85
2021/10/12 06:42:26;;;;;;;;;23.67;21.00;;;;;;;;5158537;27;8975;-83
2021/10/12 06:44:52;;;;;;;;;20.67;20.67;;;;;;;;5144014;27;8816;-84
2021/10/12 06:47:17;;;;;;;;;24.67;21.00;;;;;;;;5136628;27;8938;-86
2021/10/12 06:49:42;;;;;;;;;23.33;19.00;;;;;;;;5134639;27;8819;-83
2021/10/12 06:52:08;;;;;;;;;17.00;16.67;;;;;;;;5134848;27;8880;-83
2021/10/12 06:54:33;;;;;;;;;22.67;20.00;;;;;;;;5136725;27;8820;-84
2021/10/12 06:57:00;;;;;;;;;24.00;20.67;;;;;;;;5136880;27;8800;-84
2021/10/12 06:59:25;;;;;;;;;22.33;22.33;;;;;;;;5134942;27;8772;-80
2021/10/12 07:01:52;;;;;;;;;22.67;20.67;;;;;;;;5136447;27;9322;-81
2021/10/12 07:04:17;;;;;;;;;22.33;20.67;;;;;;;;5136664;27;8757;-81
2021/10/12 07:06:42;;;;;;;;;20.67;20.67;;;;;;;;5136402;27;10271;-82
2021/10/12 07:09:07;;;;;;;;;29.00;24.67;;;;;;;;5136689;27;8809;-81
2021/10/12 07:11:33;;;;;;;;;31.00;29.33;;;;;;;;5139421;27;8776;-83
2021/10/12 07:13:58;;;;;;;;;30.50;29.75;;;;;;;;5140207;27;8830;-82
2021/10/12 07:16:23;;;;;;;;;28.75;28.00;;;;;;;;5140313;27;8843;-81
2021/10/12 07:18:49;;;;;;;;;34.25;30.25;;;;;;;;5139977;27;8820;-81
2021/10/12 07:21:14;;;;;;;;;26.33;24.67;;;;;;;;5138290;27;8852;-81
2021/10/12 07:23:39;;;;;;;;;27.00;25.00;;;;;;;;5138244;27;8816;-81
2021/10/12 07:26:04;;;;;;;;;25.67;23.67;;;;;;;;5140030;27;8901;-81
2021/10/12 07:28:30;;;;;;;;;28.33;26.33;;;;;;;;5139987;27;8789;-82
2021/10/12 07:30:55;;;;;;;;;23.33;22.00;;;;;;;;5153752;27;8790;-81
2021/10/12 07:33:20;;;;;;;;;22.67;21.00;;;;;;;;5160645;27;9541;-83
2021/10/12 07:35:45;;;;;;;;;24.00;23.00;;;;;;;;5160547;27;8770;-83
2021/10/12 07:38:12;;;;;;;;;25.33;20.67;;;;;;;;5142572;27;8828;-83
2021/10/12 07:40:38;;;;;;;;;25.00;21.33;;;;;;;;5138355;27;8787;-83
2021/10/12 07:43:04;;;;;;;;;24.67;24.33;;;;;;;;5138035;27;9186;-82
2021/10/12 07:45:29;;;;;;;;;24.00;22.00;;;;;;;;5139622;27;9412;-82
2021/10/12 07:47:56;;;;;;;;;26.67;25.00;;;;;;;;5139528;27;8808;-81
2021/10/12 07:50:21;;;;;;;;;29.00;29.00;;;;;;;;5138911;27;9001;-79
2021/10/12 07:52:47;;;;;;;;;23.00;20.33;;;;;;;;5135856;27;9352;-79
2021/10/12 07:55:15;;;;;;;;;20.67;20.00;;;;;;;;5139087;27;8800;-79
2021/10/12 07:57:40;;;;;;;;;22.00;22.00;;;;;;;;5138131;27;8745;-80
2021/10/12 08:00:06;;;;;;;;;21.00;20.33;;;;;;;;5139509;27;9968;-79
2021/10/12 08:02:31;;;;;;;;;23.00;20.33;;;;;;;;5139421;27;8888;-79
2021/10/12 08:04:57;;;;;;;;;25.00;20.33;;;;;;;;5139488;27;8812;-79
2021/10/12 08:07:25;;;;;;;;;22.00;22.00;;;;;;;;5137577;27;8828;-79
2021/10/12 08:09:51;;;;;;;;;27.33;24.33;;;;;;;;5138193;27;8808;-79
2021/10/12 08:12:16;;;;;;;;;22.67;22.67;;;;;;;;5137965;27;9207;-80
2021/10/12 08:14:45;;;;;;;;;28.33;25.33;;;;;;;;5139735;27;10127;-80
2021/10/12 08:17:11;;;;;;;;;27.33;26.67;;;;;;;;5139379;27;8764;-79
2021/10/12 08:19:36;;;;;;;;;26.33;25.33;;;;;;;;5139098;27;9505;-80
2021/10/12 08:22:02;;;;;;;;;23.67;23.33;;;;;;;;5137935;27;8880;-80
2021/10/12 08:24:28;;;;;;;;;30.67;28.00;;;;;;;;5139758;27;9563;-80
2021/10/12 08:26:53;;;;;;;;;28.33;25.67;;;;;;;;5139531;27;8857;-80
2021/10/12 08:29:18;;;;;;;;;26.00;24.33;;;;;;;;5137884;27;8978;-80
2021/10/12 08:31:44;;;;;;;;;24.33;22.33;;;;;;;;5158714;27;8949;-80
2021/10/12 08:34:09;;;;;;;;;29.00;28.00;;;;;;;;5158452;27;8802;-79
2021/10/12 08:36:37;;;;;;;;;27.00;23.00;;;;;;;;5158303;27;8822;-79
2021/10/12 08:39:03;;;;;;;;;29.00;26.00;;;;;;;;5160508;27;8913;-79
2021/10/12 08:41:30;;;;;;;;;26.33;25.67;;;;;;;;5160875;27;9316;-77
2021/10/12 08:43:55;;;;;;;;;27.00;27.00;;;;;;;;5159483;27;8786;-78
2021/10/12 08:46:23;;;;;;;;;30.33;28.33;;;;;;;;5159471;27;9812;-80
2021/10/12 08:48:48;;;;;;;;;29.75;29.50;;;;;;;;5159499;27;8786;-77
2021/10/12 08:51:13;;;;;;;;;31.00;28.00;;;;;;;;5159151;27;9921;-78
2021/10/12 08:53:39;;;;;;;;;31.67;27.00;;;;;;;;5135679;27;8832;-78
2021/10/12 08:56:06;;;;;;;;;31.00;30.00;;;;;;;;5138300;27;8910;-78
2021/10/12 08:58:31;;;;;;;;;27.00;25.33;;;;;;;;5138373;27;8873;-80
2021/10/12 09:01:07;;;;;;;;;28.00;28.00;;;;;;;;5136056;27;9567;-81
2021/10/12 09:03:47;;;;;;;;;30.00;28.00;;;;;;;;5138209;27;8845;-80
2021/10/12 09:06:13;;;;;;;;;29.33;28.00;;;;;;;;5138119;27;9423;-78
2021/10/12 09:08:39;;;;;;;;;29.50;28.50;;;;;;;;5138151;27;9494;-80
2021/10/12 09:11:06;;;;;;;;;28.67;28.33;;;;;;;;5138178;27;8773;-80
2021/10/12 09:13:44;;;;;;;;;28.67;28.33;;;;;;;;5138374;27;10222;-80
2021/10/12 09:16:17;;;;;;;;;28.67;28.33;;;;;;;;5136926;27;9292;-79
2021/10/12 09:18:51;;;;;;;;;31.67;29.67;;;;;;;;5136182;27;9356;-81
2021/10/12 09:21:20;;;;;;;;;27.33;27.33;;;;;;;;5137378;27;10495;-84
2021/10/12 09:23:46;;;;;;;;;27.33;26.33;;;;;;;;5138153;27;9374;-78
2021/10/12 09:26:18;;;;;;;;;32.33;29.67;;;;;;;;5137973;27;9524;-78
2021/10/12 09:28:43;;;;;;;;;31.67;29.33;;;;;;;;5138564;27;8764;-82
2021/10/12 09:31:09;;;;;;;;;30.33;29.33;;;;;;;;5152588;27;9397;-81
2021/10/12 09:33:54;;;;;;;;;26.33;26.33;;;;;;;;5158763;27;8792;-81
2021/10/12 09:36:35;;;;;;;;;25.00;24.00;;;;;;;;5156754;27;9145;-79
2021/10/12 09:39:00;;;;;;;;;25.00;23.67;;;;;;;;5157457;27;9211;-80
2021/10/12 09:41:26;;;;;;;;;22.67;20.67;;;;;;;;5158424;27;9252;-79
2021/10/12 09:43:53;;;;;;;;;20.67;18.67;;;;;;;;5157192;27;9186;-77
2021/10/12 09:46:34;;;;;;;;;21.50;20.50;;;;;;;;5158510;27;9061;-80
2021/10/12 09:49:15;;;;;;;;;25.00;23.33;;;;;;;;5158615;27;8758;-80
2021/10/12 09:51:55;;;;;;;;;19.75;19.00;;;;;;;;5156653;27;8975;-78
2021/10/12 09:54:29;;;;;;;;;21.33;21.33;;;;;;;;5156979;27;8870;-76
2021/10/12 09:56:55;;;;;;;;;22.75;19.50;;;;;;;;5158580;27;8931;-76
2021/10/12 09:59:20;;;;;;;;;18.50;18.50;;;;;;;;5158432;27;8767;-78
2021/10/12 10:01:46;;;;;;;;;22.33;21.33;;;;;;;;5158436;27;9549;-78
2021/10/12 10:04:15;;;;;;;;;17.67;17.67;;;;;;;;5158499;27;8766;-77
2021/10/12 10:06:41;;;;;;;;;19.50;19.50;;;;;;;;5157863;27;9873;-79
2021/10/12 10:09:08;;;;;;;;;20.00;17.00;;;;;;;;5156976;27;8794;-81
2021/10/12 10:11:34;;;;;;;;;17.00;15.25;;;;;;;;5158455;27;8875;-82
2021/10/12 10:14:01;;;;;;;;;20.67;17.67;;;;;;;;5158625;27;8782;-79
2021/10/12 10:17:01;;;;;;;;;;;;;;;;;;;;;
2021/10/12 10:19:29;;;;;;;;;13.00;13.00;;;;;;;;5158733;27;35763;-80
2021/10/12 10:21:54;;;;;;;;;17.50;17.00;;;;;;;;5160001;27;8730;-77
2021/10/12 10:24:38;;;;;;;;;15.67;15.00;;;;;;;;5159762;27;8831;-79
2021/10/12 10:27:04;;;;;;;;;17.25;16.00;;;;;;;;5159273;27;9715;-77
2021/10/12 10:29:37;;;;;;;;;17.33;17.00;;;;;;;;5157097;27;8778;-80
2021/10/12 10:32:14;;;;;;;;;18.50;15.50;;;;;;;;5136089;27;8824;-77
2021/10/12 10:34:42;;;;;;;;;19.75;14.75;;;;;;;;5119560;27;8922;-78
2021/10/12 10:37:16;;;;;;;;;17.50;16.25;;;;;;;;5119012;27;9743;-78
2021/10/12 10:39:46;;;;;;;;;15.75;14.00;;;;;;;;5117043;27;8768;-78
2021/10/12 10:42:26;;;;;;;;;14.00;14.00;;;;;;;;5116925;27;8779;-80
2021/10/12 10:44:56;;;;;;;;;13.25;13.00;;;;;;;;5115396;28;9175;-76
2021/10/12 10:47:54;;;;;;;;;9.00;9.00;;;;;;;;5119854;28;8876;-79
2021/10/12 10:50:19;;;;;;;;;8.25;8.25;;;;;;;;5119722;27;8802;-79
2021/10/12 10:52:45;;;;;;;;;12.67;12.00;;;;;;;;5118687;28;8931;-78
2021/10/12 10:55:10;;;;;;;;;9.33;8.67;;;;;;;;5120748;27;8897;-80
2021/10/12 10:57:36;;;;;;;;;7.33;6.67;;;;;;;;5121166;27;8829;-78
2021/10/12 11:00:20;;;;;;;;;5.33;5.33;;;;;;;;5120401;27;9522;-78
2021/10/12 11:02:46;;;;;;;;;4.25;4.25;;;;;;;;5120401;27;8791;-77
2021/10/12 11:05:30;;;;;;;;;4.00;4.00;;;;;;;;5123289;27;9690;-77
2021/10/12 11:08:09;;;;;;;;;5.00;4.50;;;;;;;;5118705;27;8803;-78
2021/10/12 11:10:34;;;;;;;;;7.00;7.00;;;;;;;;5121616;27;8779;-78
2021/10/12 11:12:59;;;;;;;;;8.67;5.67;;;;;;;;5121095;27;8880;-78
2021/10/12 11:15:25;;;;;;;;;5.00;4.00;;;;;;;;5120459;27;8829;-79
2021/10/12 11:18:03;;;;;;;;;6.00;6.00;;;;;;;;5119809;27;8823;-78
2021/10/12 11:20:37;;;;;;;;;5.75;4.25;;;;;;;;5120213;27;8767;-78
2021/10/12 11:23:02;;;;;;;;;7.50;6.00;;;;;;;;5123742;27;9700;-78
2021/10/12 11:25:31;;;;;;;;;6.33;5.67;;;;;;;;5119517;28;8814;-77
2021/10/12 11:28:05;;;;;;;;;7.25;5.75;;;;;;;;5123819;28;8842;-77
2021/10/12 11:30:32;;;;;;;;;8.25;7.25;;;;;;;;5142512;27;8742;-78
2021/10/12 11:32:57;;;;;;;;;5.25;4.00;;;;;;;;5162152;27;8916;-77
2021/10/12 11:35:31;;;;;;;;;8.67;7.67;;;;;;;;5161239;27;8904;-78
2021/10/12 11:37:56;;;;;;;;;5.25;5.25;;;;;;;;5162489;27;8786;-79
2021/10/12 11:40:24;;;;;;;;;5.67;5.00;;;;;;;;5163523;27;8793;-78
2021/10/12 11:42:49;;;;;;;;;8.75;7.25;;;;;;;;5160564;27;8910;-78
2021/10/12 11:45:14;;;;;;;;;7.00;7.00;;;;;;;;5160905;27;8870;-77
2021/10/12 11:47:40;;;;;;;;;8.00;6.00;;;;;;;;5161114;27;8825;-77
2021/10/12 11:50:12;;;;;;;;;6.00;4.00;;;;;;;;5160873;27;9539;-78
2021/10/12 11:52:38;;;;;;;;;7.00;6.25;;;;;;;;5160874;27;8774;-77
2021/10/12 11:55:07;;;;;;;;;6.00;5.67;;;;;;;;5161119;27;8786;-76
2021/10/12 11:57:32;;;;;;;;;6.50;6.50;;;;;;;;5160692;27;8770;-78
2021/10/12 11:59:58;;;;;;;;;6.00;6.00;;;;;;;;5141647;27;8799;-78
2021/10/12 12:02:23;;;;;;;;;6.33;6.33;;;;;;;;5130160;27;8869;-78
2021/10/12 12:04:50;;;;;;;;;9.00;7.00;;;;;;;;5131009;27;8823;-78
2021/10/12 12:07:16;;;;;;;;;8.00;7.00;;;;;;;;5138766;27;8831;-78
2021/10/12 12:09:45;;;;;;;;;8.00;7.00;;;;;;;;5120627;27;8829;-77
2021/10/12 12:12:10;;;;;;;;;8.00;6.75;;;;;;;;5118821;28;8795;-77
2021/10/12 12:14:36;;;;;;;;;8.33;8.33;;;;;;;;5130968;27;8792;-76
2021/10/12 12:17:27;;;;;;;;;6.00;6.00;;;;;;;;5138753;27;8812;-78
2021/10/12 12:19:54;;;;;;;;;5.25;4.75;;;;;;;;5140718;27;8780;-80
2021/10/12 12:22:22;;;;;;;;;6.00;5.50;;;;;;;;5139684;27;9781;-78
2021/10/12 12:25:06;;;;;;;;;4.50;3.25;;;;;;;;5141480;27;8776;-83
2021/10/12 12:27:35;;;;;;;;;5.25;5.00;;;;;;;;5144659;27;8886;-80
2021/10/12 12:30:03;;;;;;;;;4.25;4.25;;;;;;;;5151974;27;8758;-80
2021/10/12 12:32:28;;;;;;;;;9.00;7.00;;;;;;;;5164473;27;8714;-78
2021/10/12 12:34:58;;;;;;;;;7.00;5.33;;;;;;;;5163002;27;8854;-83
2021/10/12 12:37:25;;;;;;;;;8.25;6.75;;;;;;;;5159832;27;8750;-81
2021/10/12 12:39:50;;;;;;;;;5.50;5.50;;;;;;;;5160013;27;9631;-82
2021/10/12 12:42:35;;;;;;;;;7.00;6.00;;;;;;;;5160472;27;8809;-82
2021/10/12 12:45:06;;;;;;;;;6.25;5.75;;;;;;;;5160064;27;8758;-80
2021/10/12 12:47:31;;;;;;;;;5.50;5.25;;;;;;;;5158638;27;9763;-81
2021/10/12 12:50:26;;;;;;;;;6.00;4.00;;;;;;;;5160354;27;8782;-79
2021/10/12 12:52:51;;;;;;;;;4.00;4.00;;;;;;;;5155131;27;8788;-79
2021/10/12 12:55:31;;;;;;;;;5.00;5.00;;;;;;;;5161840;27;8786;-78
2021/10/12 12:57:57;;;;;;;;;6.75;4.25;;;;;;;;5160442;27;8778;-78
2021/10/12 13:00:22;;;;;;;;;4.67;4.00;;;;;;;;5159951;27;8766;-79
2021/10/12 13:02:55;;;;;;;;;3.00;3.00;;;;;;;;5158535;27;8872;-78
2021/10/12 13:05:21;;;;;;;;;4.25;4.25;;;;;;;;5159529;27;9707;-77
2021/10/12 13:07:46;;;;;;;;;6.25;5.25;;;;;;;;5159029;27;8786;-79
2021/10/12 13:10:12;;;;;;;;;4.00;4.00;;;;;;;;5159006;27;8802;-79
2021/10/12 13:12:37;;;;;;;;;4.00;4.00;;;;;;;;5163884;27;8758;-78
2021/10/12 13:15:02;;;;;;;;;6.00;5.00;;;;;;;;5160743;27;8863;-78
2021/10/12 13:17:27;;;;;;;;;5.67;4.00;;;;;;;;5160229;27;8801;-82
2021/10/12 13:19:53;;;;;;;;;3.00;2.67;;;;;;;;5161655;27;8808;-82
2021/10/12 13:22:19;;;;;;;;;4.00;4.00;;;;;;;;5160515;27;8798;-84
2021/10/12 13:24:44;;;;;;;;;5.67;5.00;;;;;;;;5169268;27;8781;-81
2021/10/12 13:27:09;;;;;;;;;5.00;4.00;;;;;;;;5161057;27;10150;-80
2021/10/12 13:29:35;;;;;;;;;5.33;5.33;;;;;;;;5163600;27;8778;-85
2021/10/12 13:32:00;;;;;;;;;4.00;4.00;;;;;;;;5139469;27;8835;-79
2021/10/12 13:34:30;;;;;;;;;6.33;4.33;;;;;;;;5136962;27;9053;-78
2021/10/12 13:36:55;;;;;;;;;8.25;6.00;;;;;;;;5141108;27;8765;-78
2021/10/12 13:39:20;;;;;;;;;7.00;5.00;;;;;;;;5139795;27;8880;-78
2021/10/12 13:41:46;;;;;;;;;4.00;4.00;;;;;;;;5139969;27;8799;-80
2021/10/12 13:44:11;;;;;;;;;5.00;2.33;;;;;;;;5138448;27;8777;-80
2021/10/12 13:46:36;;;;;;;;;6.00;5.33;;;;;;;;5140746;27;8808;-78
2021/10/12 13:49:01;;;;;;;;;4.67;4.67;;;;;;;;5140856;27;8773;-81
2021/10/12 13:51:27;;;;;;;;;6.33;5.33;;;;;;;;5139561;27;9013;-79
2021/10/12 13:53:52;;;;;;;;;6.00;6.00;;;;;;;;5137883;27;8769;-78
2021/10/12 13:56:17;;;;;;;;;4.67;4.67;;;;;;;;5136888;27;8825;-77
2021/10/12 13:58:42;;;;;;;;;6.67;4.33;;;;;;;;5137744;27;8780;-82
2021/10/12 14:01:08;;;;;;;;;4.33;4.33;;;;;;;;5137948;27;8805;-84
2021/10/12 14:03:35;;;;;;;;;5.00;4.67;;;;;;;;5138934;27;8776;-84
2021/10/12 14:06:01;;;;;;;;;7.00;5.50;;;;;;;;5139334;27;9690;-83
2021/10/12 14:08:26;;;;;;;;;4.33;4.33;;;;;;;;5139397;27;8818;-84
2021/10/12 14:10:51;;;;;;;;;4.00;4.00;;;;;;;;5139003;27;9520;-80
2021/10/12 14:13:16;;;;;;;;;4.67;4.67;;;;;;;;5138787;27;8796;-82
2021/10/12 14:15:41;;;;;;;;;7.67;7.33;;;;;;;;5138005;27;8815;-80
2021/10/12 14:18:07;;;;;;;;;5.00;5.00;;;;;;;;5141486;27;8819;-80
2021/10/12 14:20:32;;;;;;;;;5.67;5.33;;;;;;;;5140833;27;8816;-77
2021/10/12 14:22:57;;;;;;;;;7.00;6.00;;;;;;;;5140892;27;8792;-81
2021/10/12 14:25:23;;;;;;;;;6.00;5.00;;;;;;;;5141181;27;8919;-78
2021/10/12 14:27:49;;;;;;;;;5.33;5.33;;;;;;;;5141051;27;8800;-79
2021/10/12 14:30:14;;;;;;;;;9.00;6.67;;;;;;;;5149148;27;8833;-78
2021/10/12 14:32:40;;;;;;;;;8.33;5.67;;;;;;;;5160515;27;8798;-79
2021/10/12 14:35:05;;;;;;;;;6.33;6.33;;;;;;;;5161838;27;8924;-80
2021/10/12 14:37:33;;;;;;;;;5.33;5.33;;;;;;;;5161701;27;8904;-83
2021/10/12 14:39:59;;;;;;;;;7.75;7.75;;;;;;;;5163145;27;11417;-84
2021/10/12 14:42:25;;;;;;;;;8.33;8.33;;;;;;;;5153944;27;9285;-83
2021/10/12 14:44:50;;;;;;;;;10.75;9.75;;;;;;;;5133752;27;11507;-83